Time;durP1;ratioP1;P1;durP2;ratioP2;P2;SDS_P1;SDS_P2;PMS_P1;PMS_P2;Temp;Humidity;BMP_temperature;BMP_pressure;BME280_temperature;BME280_humidity;BME280_pressure;Samples;Min_cycle;Max_cycle;Signal;HPM_P1;HPM_P2
2022/08/02 00:01:30;;;;;;;6.65;1.95;;;;;;;17.41;61.49;101765.41;4994714;28;20573;-75
2022/08/02 00:03:55;;;;;;;8.73;1.92;;;;;;;17.41;61.54;101762.69;5011492;28;20101;-75
2022/08/02 00:06:20;;;;;;;5.95;2.22;;;;;;;17.37;61.82;101747.78;5011909;28;20034;-75
2022/08/02 00:08:46;;;;;;;8.57;1.80;;;;;;;17.41;61.93;101748.25;5012112;28;20042;-75
2022/08/02 00:11:11;;;;;;;7.03;2.00;;;;;;;17.44;61.88;101750.53;5012153;28;20041;-75
2022/08/02 00:13:37;;;;;;;9.00;2.33;;;;;;;17.47;61.93;101750.13;5011711;28;20025;-75
2022/08/02 00:16:02;;;;;;;9.00;2.13;;;;;;;17.48;62.00;101747.22;5011511;28;20029;-75
2022/08/02 00:18:28;;;;;;;9.77;2.20;;;;;;;17.42;61.86;101745.31;5011887;28;20045;-74
2022/08/02 00:20:53;;;;;;;6.32;2.05;;;;;;;17.36;61.92;101748.00;4994390;28;20030;-75
2022/08/02 00:23:19;;;;;;;11.88;2.67;;;;;;;17.25;62.03;101742.13;5011278;28;20040;-75
2022/08/02 00:25:44;;;;;;;6.45;2.20;;;;;;;17.22;62.41;101745.25;5011676;28;20185;-74
2022/08/02 00:28:10;;;;;;;11.63;2.15;;;;;;;17.13;62.76;101743.75;5011937;28;20100;-75
2022/08/02 00:30:36;;;;;;;8.25;2.00;;;;;;;17.14;63.04;101737.28;5012025;28;20049;-75
2022/08/02 00:33:01;;;;;;;11.57;1.95;;;;;;;17.15;63.28;101738.94;4993817;28;20389;-75
2022/08/02 00:35:27;;;;;;;8.60;2.03;;;;;;;17.17;63.29;101741.44;4990995;28;20058;-75
2022/08/02 00:37:52;;;;;;;8.90;2.38;;;;;;;17.18;63.32;101741.25;4992180;28;20526;-74
2022/08/02 00:40:22;;;;;;;9.10;1.80;;;;;;;17.16;63.19;101735.16;4995156;28;20477;-74
2022/08/02 00:42:59;;;;;;;10.40;2.45;;;;;;;17.13;63.10;101735.56;4992824;28;20057;-74
2022/08/02 00:45:25;;;;;;;10.95;2.10;;;;;;;17.07;63.74;101737.22;4994315;28;20061;-74
2022/08/02 00:47:50;;;;;;;11.05;2.05;;;;;;;17.10;63.58;101733.28;4991780;28;20432;-74
2022/08/02 00:50:16;;;;;;;10.32;1.88;;;;;;;17.13;63.48;101730.13;4991779;28;20104;-75
2022/08/02 00:52:41;;;;;;;5.95;2.33;;;;;;;17.09;63.68;101728.88;4991741;28;20034;-74
2022/08/02 00:55:07;;;;;;;7.40;2.15;;;;;;;17.05;63.83;101724.88;4990371;28;20037;-75
2022/08/02 00:57:32;;;;;;;12.25;2.20;;;;;;;17.02;64.27;101714.41;4991836;28;20129;-75
2022/08/02 00:59:57;;;;;;;7.90;2.17;;;;;;;17.02;64.03;101730.72;4990957;28;20105;-75
2022/08/02 01:02:23;;;;;;;11.50;2.35;;;;;;;17.04;63.88;101717.78;4991287;28;20030;-75
2022/08/02 01:04:48;;;;;;;12.90;2.40;;;;;;;17.04;63.77;101718.59;4992613;28;20054;-75
2022/08/02 01:07:14;;;;;;;7.53;2.08;;;;;;;16.98;63.92;101716.72;4996581;28;20500;-75
2022/08/02 01:09:41;;;;;;;10.40;2.50;;;;;;;16.94;63.87;101714.59;4994547;28;20486;-75
2022/08/02 01:12:06;;;;;;;11.35;2.03;;;;;;;16.89;63.94;101710.59;4989922;28;20537;-75
2022/08/02 01:14:32;;;;;;;10.00;2.25;;;;;;;16.84;64.20;101715.78;4991285;28;20026;-74
2022/08/02 01:17:16;;;;;;;9.75;1.98;;;;;;;16.78;64.50;101715.78;4991315;28;20263;-74
2022/08/02 01:20:07;;;;;;;10.48;2.90;;;;;;;16.78;64.67;101710.34;4991229;28;20042;-74
2022/08/02 01:22:45;;;;;;;11.40;2.40;;;;;;;16.79;64.96;101710.13;4973791;28;20125;-74
2022/08/02 01:25:32;;;;;;;10.25;2.13;;;;;;;16.83;65.08;101714.13;4990120;28;20026;-75
2022/08/02 01:28:28;;;;;;;6.78;2.10;;;;;;;16.87;64.80;101718.09;4989981;28;20037;-75
2022/08/02 01:30:58;;;;;;;9.68;2.80;;;;;;;16.82;64.06;101712.44;4991175;28;20101;-75
2022/08/02 01:33:27;;;;;;;11.20;2.17;;;;;;;16.79;64.04;101722.88;4989197;28;20030;-74
2022/08/02 01:35:53;;;;;;;12.27;2.53;;;;;;;16.77;64.24;101714.94;4992924;28;20022;-75
2022/08/02 01:38:30;;;;;;;8.85;1.80;;;;;;;16.76;63.90;101713.22;4992695;28;20026;-75
2022/08/02 01:40:57;;;;;;;8.07;1.92;;;;;;;16.73;64.46;101713.63;4992823;28;20042;-74
2022/08/02 01:43:24;;;;;;;12.75;2.35;;;;;;;16.73;65.03;101716.34;4993055;28;20026;-75
2022/08/02 01:45:50;;;;;;;7.88;2.20;;;;;;;16.74;64.62;101715.28;4993172;28;20382;-75
2022/08/02 01:48:17;;;;;;;6.50;2.10;;;;;;;16.72;63.92;101701.09;4992265;28;20406;-75
2022/08/02 01:50:42;;;;;;;7.25;1.98;;;;;;;16.71;64.08;101715.69;4993222;28;20030;-75
2022/08/02 01:53:09;;;;;;;11.15;2.55;;;;;;;16.62;64.23;101706.88;5010316;28;20037;-76
2022/08/02 01:55:39;;;;;;;6.55;2.15;;;;;;;16.64;64.65;101704.81;4994809;28;20123;-75
2022/08/02 01:58:06;;;;;;;7.35;2.08;;;;;;;16.65;64.29;101690.16;5010511;28;20022;-74
2022/08/02 02:00:35;;;;;;;11.60;1.80;;;;;;;16.66;64.41;101704.59;4993296;28;20030;-75
2022/08/02 02:03:01;;;;;;;7.63;2.75;;;;;;;16.63;64.26;101705.00;4993382;28;20117;-75
2022/08/02 02:05:28;;;;;;;8.90;2.30;;;;;;;16.64;64.69;101699.38;4993347;28;20105;-75
2022/08/02 02:07:59;;;;;;;11.13;2.53;;;;;;;16.66;64.81;101701.88;4992625;28;20466;-74
2022/08/02 02:10:29;;;;;;;6.57;2.00;;;;;;;16.65;64.33;101694.78;4993323;28;20096;-75
2022/08/02 02:12:59;;;;;;;7.03;1.92;;;;;;;16.60;63.84;101697.25;4992997;28;20040;-74
2022/08/02 02:15:25;;;;;;;3.28;1.77;;;;;;;16.58;64.01;101700.16;5010701;28;20022;-75
2022/08/02 02:17:52;;;;;;;8.90;2.72;;;;;;;16.60;64.34;101705.41;5009789;28;20477;-75
2022/08/02 02:20:19;;;;;;;10.43;2.17;;;;;;;16.62;64.39;101712.31;5010708;28;20108;-74
2022/08/02 02:22:45;;;;;;;12.60;2.40;;;;;;;16.61;64.21;101701.63;4992939;28;20029;-75
2022/08/02 02:25:12;;;;;;;8.25;1.70;;;;;;;16.54;64.09;101708.94;4995006;28;20145;-75
2022/08/02 02:27:42;;;;;;;11.57;2.40;;;;;;;16.55;64.24;101699.72;4997913;28;20033;-76
2022/08/02 02:30:08;;;;;;;6.10;1.95;;;;;;;16.54;64.01;101692.63;4996411;28;20481;-75
2022/08/02 02:32:34;;;;;;;5.15;1.60;;;;;;;16.51;64.32;101693.00;5010689;28;20036;-75
2022/08/02 02:35:00;;;;;;;8.05;1.98;;;;;;;16.46;64.15;101686.31;5003220;23;20418;-46
2022/08/02 02:37:27;;;;;;;9.88;1.80;;;;;;;16.48;64.53;101688.81;4962449;28;20042;-46
2022/08/02 02:39:53;;;;;;;8.77;2.20;;;;;;;16.50;65.41;101685.91;4975618;28;20045;-47
2022/08/02 02:42:22;;;;;;;8.15;2.15;;;;;;;16.49;65.36;101697.81;4978988;28;20018;-46
2022/08/02 02:44:49;;;;;;;10.40;2.30;;;;;;;16.52;65.21;101697.41;4977587;28;20031;-46
2022/08/02 02:47:15;;;;;;;8.25;2.15;;;;;;;16.53;65.42;101690.94;4959933;28;20034;-46
2022/08/02 02:49:42;;;;;;;7.22;2.05;;;;;;;16.55;65.29;101684.25;4977153;28;20074;-48
2022/08/02 02:52:08;;;;;;;7.25;2.42;;;;;;;16.50;64.99;101691.34;4965022;28;20109;-46
2022/08/02 02:54:35;;;;;;;6.28;1.90;;;;;;;16.45;65.23;101687.34;4959840;28;20050;-46
2022/08/02 02:57:02;;;;;;;5.70;2.13;;;;;;;16.41;65.70;101686.06;4975774;28;20026;-47
2022/08/02 02:59:27;;;;;;;10.25;3.20;;;;;;;16.40;66.32;101673.53;4958443;28;20026;-48
2022/08/02 03:01:53;;;;;;;7.85;2.10;;;;;;;16.41;66.21;101677.91;4956482;28;20106;-50
2022/08/02 03:04:19;;;;;;;4.22;1.90;;;;;;;16.42;65.64;101674.16;4958211;28;20023;-49
2022/08/02 03:06:45;;;;;;;6.97;2.40;;;;;;;16.42;65.59;101668.72;4957597;28;20066;-47
2022/08/02 03:09:10;;;;;;;10.23;2.45;;;;;;;16.39;65.29;101674.56;4985954;28;20117;-48
2022/08/02 03:11:36;;;;;;;6.90;1.67;;;;;;;16.35;65.99;101662.44;4995204;28;20053;-47
2022/08/02 03:14:03;;;;;;;11.57;2.03;;;;;;;16.35;66.47;101657.00;4975608;28;20110;-47
2022/08/02 03:16:28;;;;;;;6.53;2.03;;;;;;;16.30;65.69;101656.75;4974325;28;20080;-48
2022/08/02 03:18:55;;;;;;;11.20;1.90;;;;;;;16.34;65.58;101649.88;4974612;28;20114;-47
2022/08/02 03:21:21;;;;;;;9.95;2.20;;;;;;;16.33;65.12;101641.94;4975202;28;20031;-47
2022/08/02 03:23:46;;;;;;;6.68;1.88;;;;;;;16.25;64.05;101634.78;4975056;28;20029;-47
2022/08/02 03:26:12;;;;;;;13.30;2.13;;;;;;;16.28;63.85;101637.09;4975427;28;20532;-47
2022/08/02 03:28:38;;;;;;;9.32;2.40;;;;;;;16.32;63.67;101632.09;4975211;28;20054;-48
2022/08/02 03:31:03;;;;;;;5.63;2.00;;;;;;;16.28;63.53;101628.13;4976344;28;20355;-47
2022/08/02 03:33:29;;;;;;;7.53;1.98;;;;;;;16.20;63.11;101639.97;4975668;28;20034;-48
2022/08/02 03:35:58;;;;;;;7.45;1.77;;;;;;;16.21;63.11;101647.06;4958549;28;20234;-47
2022/08/02 03:38:24;;;;;;;5.63;2.00;;;;;;;16.24;63.34;101649.38;4974980;28;20098;-47
2022/08/02 03:40:50;;;;;;;4.30;1.77;;;;;;;16.22;63.42;101646.06;4958475;28;20098;-47
2022/08/02 03:43:15;;;;;;;10.60;2.40;;;;;;;16.23;63.31;101637.69;4975362;28;20061;-47
2022/08/02 03:45:43;;;;;;;5.88;1.85;;;;;;;16.23;62.90;101626.81;4974999;28;20038;-48
2022/08/02 03:48:10;;;;;;;7.20;1.90;;;;;;;16.23;62.37;101615.13;4957323;28;20484;-47
2022/08/02 03:50:36;;;;;;;6.57;2.00;;;;;;;16.22;61.91;101624.31;4957042;28;20119;-47
2022/08/02 03:53:02;;;;;;;5.07;2.22;;;;;;;16.23;61.48;101617.84;4974987;28;20062;-47
2022/08/02 03:55:27;;;;;;;10.02;2.35;;;;;;;16.25;61.38;101613.06;4975061;28;20034;-48
2022/08/02 03:57:53;;;;;;;9.20;2.05;;;;;;;16.26;61.11;101625.59;4975179;28;20137;-49
2022/08/02 04:00:19;;;;;;;7.97;2.28;;;;;;;16.24;61.33;101628.53;4973896;28;20031;-49
2022/08/02 04:02:45;;;;;;;12.33;2.60;;;;;;;16.22;61.60;101627.88;4973924;28;20086;-49
2022/08/02 04:05:10;;;;;;;7.50;2.08;;;;;;;16.25;61.15;101623.91;4973750;28;20101;-49
2022/08/02 04:07:36;;;;;;;5.65;2.10;;;;;;;16.28;61.09;101625.41;4956009;28;20427;-50
2022/08/02 04:10:02;;;;;;;8.55;2.40;;;;;;;16.30;60.72;101632.31;4974893;28;20042;-46
2022/08/02 04:12:27;;;;;;;8.73;2.30;;;;;;;16.32;61.12;101632.91;4976084;28;20497;-46
2022/08/02 04:14:53;;;;;;;9.32;2.70;;;;;;;16.34;61.05;101633.56;4976143;28;20102;-46
2022/08/02 04:17:19;;;;;;;9.27;2.10;;;;;;;16.34;61.25;101628.13;4958071;28;20026;-47
2022/08/02 04:19:52;;;;;;;10.45;2.80;;;;;;;16.32;61.33;101627.50;4976139;28;20034;-46
2022/08/02 04:22:22;;;;;;;5.20;2.15;;;;;;;16.33;61.99;101626.47;4959177;28;20482;-46
2022/08/02 04:24:50;;;;;;;8.60;2.30;;;;;;;16.33;62.04;101621.03;4959278;28;20523;-46
2022/08/02 04:27:16;;;;;;;15.27;2.80;;;;;;;16.34;61.82;101622.69;4958698;28;20038;-47
2022/08/02 04:29:42;;;;;;;6.30;2.05;;;;;;;16.34;61.90;101621.88;4957880;28;20116;-50
2022/08/02 04:32:07;;;;;;;10.77;2.45;;;;;;;16.35;61.90;101623.53;4975620;28;20058;-47
2022/08/02 04:34:33;;;;;;;7.05;2.70;;;;;;;16.33;62.06;101610.16;4973706;28;20081;-47
2022/08/02 04:36:59;;;;;;;6.50;2.40;;;;;;;16.37;61.75;101606.00;4972907;28;20034;-50
2022/08/02 04:39:25;;;;;;;8.75;2.50;;;;;;;16.33;62.13;101604.75;4972988;28;20074;-48
2022/08/02 04:41:50;;;;;;;17.65;3.03;;;;;;;16.37;62.10;101606.00;4973150;28;20181;-50
2022/08/02 04:44:15;;;;;;;10.57;2.55;;;;;;;16.39;61.91;101606.63;4972728;28;20502;-50
2022/08/02 04:46:42;;;;;;;10.38;2.65;;;;;;;16.50;61.81;101599.78;4956251;28;20045;-47
2022/08/02 04:49:08;;;;;;;12.93;2.63;;;;;;;16.49;62.09;101605.44;4972241;28;20046;-48
2022/08/02 04:51:42;;;;;;;9.07;2.78;;;;;;;16.54;62.32;101598.34;4974454;28;20066;-48
2022/08/02 04:54:09;;;;;;;7.63;2.63;;;;;;;16.55;62.48;101596.47;4974232;28;20393;-48
2022/08/02 04:56:35;;;;;;;9.35;2.38;;;;;;;16.55;62.65;101599.19;4974191;28;20121;-48
2022/08/02 04:59:01;;;;;;;10.25;2.97;;;;;;;16.56;62.74;101598.13;4974287;28;20031;-47
2022/08/02 05:01:26;;;;;;;8.50;2.90;;;;;;;16.59;62.99;101603.19;4973088;28;20123;-47
2022/08/02 05:03:51;;;;;;;10.43;2.80;;;;;;;16.65;62.96;101605.06;4972453;28;20031;-47
2022/08/02 05:06:18;;;;;;;10.35;2.80;;;;;;;16.73;62.81;101604.91;4970820;28;20030;-48
2022/08/02 05:08:46;;;;;;;7.40;2.95;;;;;;;16.79;62.95;101606.81;4969567;28;20026;-50
2022/08/02 05:11:12;;;;;;;8.27;2.90;;;;;;;16.85;62.91;101619.63;4969920;28;20543;-46
2022/08/02 05:13:37;;;;;;;9.55;3.15;;;;;;;16.85;62.83;101616.91;4970562;28;20102;-48
2022/08/02 05:16:03;;;;;;;10.23;3.13;;;;;;;16.86;63.26;101623.16;4952041;28;20322;-48
2022/08/02 05:18:29;;;;;;;11.52;2.97;;;;;;;16.94;63.29;101616.72;4952854;28;20394;-49
2022/08/02 05:20:55;;;;;;;11.55;3.25;;;;;;;16.99;63.34;101615.03;4970151;28;20050;-48
2022/08/02 05:23:20;;;;;;;10.82;3.30;;;;;;;17.13;63.02;101610.47;4970266;28;20031;-48
2022/08/02 05:25:45;;;;;;;15.52;4.10;;;;;;;17.22;63.24;101608.38;4969666;28;20073;-47
2022/08/02 05:28:11;;;;;;;7.63;3.78;;;;;;;17.24;63.40;101612.56;4952698;28;20027;-47
2022/08/02 05:30:36;;;;;;;15.90;3.97;;;;;;;17.31;63.50;101613.41;4969903;28;20038;-48
2022/08/02 05:33:01;;;;;;;13.63;4.95;;;;;;;17.41;63.57;101612.19;4970150;28;20031;-48
2022/08/02 05:35:27;;;;;;;11.23;4.50;;;;;;;17.45;63.37;101610.69;4970333;28;20173;-49
2022/08/02 05:37:52;;;;;;;18.02;4.72;;;;;;;17.45;63.71;101610.69;4969956;28;20596;-49
2022/08/02 05:40:18;;;;;;;11.23;4.30;;;;;;;17.48;63.79;101615.72;4969516;28;20117;-49
2022/08/02 05:42:43;;;;;;;10.80;4.55;;;;;;;17.53;64.10;101616.75;4967293;28;20034;-48
2022/08/02 05:45:09;;;;;;;12.82;4.55;;;;;;;17.58;64.45;101610.69;4969751;28;20437;-48
2022/08/02 05:47:36;;;;;;;12.90;4.78;;;;;;;17.63;64.82;101613.63;4969887;28;20449;-48
2022/08/02 05:50:02;;;;;;;16.75;5.30;;;;;;;17.78;64.79;101613.44;4970464;28;20056;-50
2022/08/02 05:52:44;;;;;;;18.63;5.00;;;;;;;17.91;64.86;101612.59;4970181;28;20023;-51
2022/08/02 05:55:17;;;;;;;11.63;5.43;;;;;;;18.08;64.69;101608.38;4971050;28;20050;-48
2022/08/02 05:57:57;;;;;;;10.52;5.63;;;;;;;18.16;65.14;101610.84;4952868;28;20034;-50
2022/08/02 06:00:22;;;;;;;17.10;6.03;;;;;;;18.27;65.55;101603.91;4953168;28;20375;-48
2022/08/02 06:03:17;;;;;;;12.93;6.32;;;;;;;18.38;65.53;101607.88;4969269;28;20122;-48
2022/08/02 06:06:04;;;;;;;14.48;6.47;;;;;;;18.54;65.23;101601.94;4948198;28;20050;-48
2022/08/02 06:08:36;;;;;;;17.17;7.20;;;;;;;18.88;65.33;101610.84;4964590;28;20046;-51
2022/08/02 06:11:04;;;;;;;21.92;8.35;;;;;;;19.17;64.95;101614.00;4970040;28;20039;-48
2022/08/02 06:13:30;;;;;;;25.67;8.98;;;;;;;19.63;64.49;101615.53;4968184;28;20027;-47
2022/08/02 06:15:58;;;;;;;19.92;9.82;;;;;;;19.73;65.46;101610.44;4953433;28;20050;-47
2022/08/02 06:18:25;;;;;;;23.10;11.32;;;;;;;19.71;66.00;101609.81;4974291;28;20035;-48
2022/08/02 06:20:50;;;;;;;30.83;11.27;;;;;;;20.12;65.81;101614.69;4974134;28;20031;-48
2022/08/02 06:23:16;;;;;;;30.40;11.70;;;;;;;20.17;66.32;101608.53;4956476;28;20410;-51
2022/08/02 06:25:45;;;;;;;31.13;12.35;;;;;;;19.97;67.44;101596.97;4955723;28;20074;-49
2022/08/02 06:28:12;;;;;;;29.55;12.55;;;;;;;20.53;66.59;101593.16;4973719;28;20015;-49
2022/08/02 06:30:38;;;;;;;31.60;13.68;;;;;;;20.76;66.27;101590.56;4956650;28;20042;-50
2022/08/02 06:33:03;;;;;;;34.60;13.90;;;;;;;20.95;65.98;101602.31;4973637;28;20726;-52
2022/08/02 06:35:34;;;;;;;43.38;16.70;;;;;;;21.29;66.29;101608.13;4973436;28;20066;-50
2022/08/02 06:38:00;;;;;;;39.45;17.73;;;;;;;20.93;68.87;101598.13;4954843;28;20061;-50
2022/08/02 06:40:29;;;;;;;45.30;19.42;;;;;;;20.79;69.65;101600.22;4955564;28;20070;-50
2022/08/02 06:43:07;;;;;;;49.03;18.58;;;;;;;20.66;71.09;101606.69;4972210;28;20045;-51
2022/08/02 06:45:33;;;;;;;48.10;19.67;;;;;;;20.71;72.13;101606.03;4975436;28;20110;-50
2022/08/02 06:47:59;;;;;;;47.42;22.30;;;;;;;21.04;71.65;101611.88;4955922;28;20062;-48
2022/08/02 06:50:25;;;;;;;53.03;24.23;;;;;;;21.64;69.99;101610.97;4972717;28;20431;-49
2022/08/02 06:52:50;;;;;;;49.00;23.35;;;;;;;22.03;69.15;101622.25;4975356;28;20071;-48
2022/08/02 06:55:16;;;;;;;53.08;25.38;;;;;;;22.23;69.22;101615.59;4977169;28;20051;-50
2022/08/02 06:57:41;;;;;;;51.28;24.95;;;;;;;23.03;66.31;101622.16;4976578;28;20034;-51
2022/08/02 07:00:08;;;;;;;52.83;26.52;;;;;;;23.19;64.43;101615.88;4960547;28;20117;-51
2022/08/02 07:02:38;;;;;;;60.00;26.50;;;;;;;23.80;62.26;101614.19;4977881;28;20061;-53
2022/08/02 07:05:05;;;;;;;46.58;25.33;;;;;;;23.88;61.07;101608.25;4976664;28;20241;-52
2022/08/02 07:07:30;;;;;;;58.30;26.70;;;;;;;23.95;61.31;101608.06;4978028;28;20038;-47
2022/08/02 07:09:57;;;;;;;49.03;25.35;;;;;;;23.74;62.62;101604.16;4976836;28;20496;-47
2022/08/02 07:12:22;;;;;;;51.03;25.92;;;;;;;23.57;62.73;101606.09;4977071;28;20050;-47
2022/08/02 07:14:47;;;;;;;52.33;23.95;;;;;;;23.99;61.33;101597.41;4978033;28;20097;-48
2022/08/02 07:17:13;;;;;;;42.33;23.83;;;;;;;23.72;61.15;101598.09;4977204;28;20525;-46
2022/08/02 07:19:38;;;;;;;48.25;24.40;;;;;;;23.79;61.45;101589.69;4966539;28;20042;-47
2022/08/02 07:22:04;;;;;;;43.55;21.73;;;;;;;24.44;59.60;101588.09;4977729;28;20136;-47
2022/08/02 07:24:29;;;;;;;46.25;20.15;;;;;;;24.20;59.99;101593.03;4976453;28;20355;-46
2022/08/02 07:26:54;;;;;;;43.78;20.30;;;;;;;23.99;59.96;101587.22;4977177;28;20497;-51
2022/08/02 07:29:20;;;;;;;36.88;20.55;;;;;;;24.29;59.78;101581.28;4977895;28;20038;-47
2022/08/02 07:31:45;;;;;;;48.45;23.30;;;;;;;23.49;62.81;101587.28;4976109;28;20030;-49
2022/08/02 07:34:10;;;;;;;45.97;24.55;;;;;;;22.58;64.97;101571.63;4975638;28;20038;-50
2022/08/02 07:36:36;;;;;;;47.10;23.05;;;;;;;22.78;65.03;101573.94;4973445;28;20117;-47
2022/08/02 07:39:01;;;;;;;42.97;20.80;;;;;;;23.90;62.29;101576.91;4975740;28;20033;-49
2022/08/02 07:41:27;;;;;;;39.80;20.02;;;;;;;24.07;60.69;101578.53;4973855;28;20038;-49
2022/08/02 07:43:52;;;;;;;39.85;18.63;;;;;;;24.47;57.97;101579.34;4975110;28;20035;-47
2022/08/02 07:46:17;;;;;;;35.80;17.20;;;;;;;24.83;57.47;101585.22;4975447;28;20030;-49
2022/08/02 07:48:45;;;;;;;29.25;16.15;;;;;;;25.71;54.97;101579.41;4974034;28;20035;-50
2022/08/02 07:51:10;;;;;;;31.58;15.48;;;;;;;25.62;53.89;101579.09;4973523;28;20113;-47
2022/08/02 07:53:36;;;;;;;33.90;18.27;;;;;;;24.84;55.80;101581.41;4974821;28;20051;-49
2022/08/02 07:56:01;;;;;;;31.13;16.10;;;;;;;24.56;57.58;101577.78;4974710;28;20058;-49
2022/08/02 07:58:26;;;;;;;35.20;17.48;;;;;;;24.17;58.90;101569.59;4974627;28;20033;-50
2022/08/02 08:00:52;;;;;;;32.33;18.10;;;;;;;24.03;59.23;101571.06;4973011;28;20029;-49
2022/08/02 08:03:18;;;;;;;38.28;17.20;;;;;;;24.84;56.88;101570.41;4952518;28;20038;-48
2022/08/02 08:05:43;;;;;;;39.92;17.17;;;;;;;25.41;55.39;101575.34;4975481;28;20367;-47
2022/08/02 08:08:09;;;;;;;39.58;19.27;;;;;;;24.92;57.17;101575.44;4975211;28;20035;-47
2022/08/02 08:10:34;;;;;;;36.17;16.65;;;;;;;25.29;55.54;101566.44;4975142;28;20422;-49
2022/08/02 08:12:59;;;;;;;38.20;16.33;;;;;;;25.54;55.42;101574.03;4974832;28;20027;-50
2022/08/02 08:15:25;;;;;;;37.13;16.08;;;;;;;24.95;56.05;101561.13;4975595;28;20051;-51
2022/08/02 08:17:50;;;;;;;35.90;15.30;;;;;;;25.40;55.64;101565.41;4975266;28;20045;-51
2022/08/02 08:20:16;;;;;;;32.95;14.80;;;;;;;25.44;55.16;101563.78;4957697;28;20514;-46
2022/08/02 08:22:41;;;;;;;30.23;14.50;;;;;;;25.27;55.70;101554.84;4975084;28;20023;-48
2022/08/02 08:25:07;;;;;;;39.60;16.83;;;;;;;24.97;55.29;101564.47;4975364;28;20382;-50
2022/08/02 08:27:32;;;;;;;40.58;17.02;;;;;;;25.12;55.59;101559.09;4973844;28;20033;-49
2022/08/02 08:29:57;;;;;;;34.25;14.98;;;;;;;25.81;53.64;101576.72;4974850;28;20134;-48
2022/08/02 08:32:23;;;;;;;32.35;12.85;;;;;;;26.13;52.13;101579.41;4975416;28;20507;-50
2022/08/02 08:34:50;;;;;;;24.65;13.68;;;;;;;25.76;51.85;101583.03;4975897;28;20061;-48
2022/08/02 08:37:15;;;;;;;31.90;15.02;;;;;;;25.17;53.12;101575.72;4975739;28;20022;-50
2022/08/02 08:39:40;;;;;;;29.58;15.50;;;;;;;24.73;54.61;101570.28;4977455;28;20038;-50
2022/08/02 08:42:07;;;;;;;33.70;15.02;;;;;;;24.59;56.11;101576.44;4978604;28;20030;-51
2022/08/02 08:44:35;;;;;;;41.45;17.80;;;;;;;24.53;56.54;101576.38;4978924;28;20034;-51
2022/08/02 08:47:03;;;;;;;26.67;13.55;;;;;;;24.24;56.48;101583.16;4978723;28;20034;-47
2022/08/02 08:49:49;;;;;;;23.13;11.98;;;;;;;24.08;56.16;101579.38;4979126;28;20122;-51
2022/08/02 08:52:15;;;;;;;28.15;14.35;;;;;;;24.08;57.23;101568.38;4962257;28;20400;-50
2022/08/02 08:54:40;;;;;;;33.35;16.73;;;;;;;23.62;58.57;101579.53;4979431;28;20144;-51
2022/08/02 08:57:07;;;;;;;29.80;14.73;;;;;;;23.58;58.80;101578.34;4978892;28;20031;-48
2022/08/02 08:59:32;;;;;;;29.63;14.68;;;;;;;23.90;58.05;101569.50;4961278;28;20031;-49
2022/08/02 09:01:57;;;;;;;32.42;13.73;;;;;;;23.97;58.00;101580.31;4978427;28;20397;-49
2022/08/02 09:04:23;;;;;;;28.42;14.73;;;;;;;23.77;57.75;101581.69;4962857;28;20031;-49
2022/08/02 09:06:48;;;;;;;31.45;13.57;;;;;;;24.08;57.23;101582.94;4977694;28;20090;-49
2022/08/02 09:09:14;;;;;;;21.73;11.85;;;;;;;24.56;55.56;101575.03;4976826;28;20023;-47
2022/08/02 09:11:39;;;;;;;22.88;12.25;;;;;;;24.58;53.76;101580.28;4979907;28;20125;-49
2022/08/02 09:14:05;;;;;;;20.05;11.23;;;;;;;24.50;54.09;101576.91;4978934;28;20086;-49
2022/08/02 09:16:39;;;;;;;25.85;11.57;;;;;;;24.69;52.85;101584.81;4980486;28;20154;-49
2022/08/02 09:19:19;;;;;;;21.75;9.23;;;;;;;24.83;52.93;101586.09;4979739;28;20080;-49
2022/08/02 09:21:45;;;;;;;19.30;9.35;;;;;;;25.19;51.47;101584.50;4968888;28;20035;-48
2022/08/02 09:24:22;;;;;;;27.75;10.90;;;;;;;24.97;51.47;101581.81;4960311;29;20039;-48
2022/08/02 09:26:49;;;;;;;22.00;9.88;;;;;;;25.05;51.73;101583.25;4972927;28;20061;-49
2022/08/02 09:29:16;;;;;;;23.20;9.48;;;;;;;25.60;51.10;101584.84;4978920;28;20038;-51
2022/08/02 09:31:42;;;;;;;24.42;10.30;;;;;;;25.54;50.84;101590.59;4979336;28;20082;-48
2022/08/02 09:34:09;;;;;;;19.25;10.60;;;;;;;25.57;50.55;101576.28;4978874;28;20098;-50
2022/08/02 09:36:40;;;;;;;24.10;9.93;;;;;;;25.06;51.73;101584.09;4979262;28;20030;-49
2022/08/02 09:39:08;;;;;;;20.75;9.50;;;;;;;25.63;51.29;101591.75;4978543;28;20038;-48
2022/08/02 09:41:36;;;;;;;22.33;10.20;;;;;;;25.31;51.62;101591.81;4980266;28;20039;-50
2022/08/02 09:44:04;;;;;;;23.35;11.20;;;;;;;25.22;50.61;101604.38;4981347;28;20075;-50
2022/08/02 09:46:32;;;;;;;23.15;9.93;;;;;;;25.33;51.90;101606.13;4980128;28;20035;-49
2022/08/02 09:48:59;;;;;;;24.80;10.52;;;;;;;25.41;51.74;101605.66;4982795;28;20073;-48
2022/08/02 09:51:58;;;;;;;28.02;10.40;;;;;;;26.05;51.00;101605.56;4983872;28;20034;-50
2022/08/02 09:54:27;;;;;;;21.83;8.63;;;;;;;26.87;49.35;101602.34;4940227;28;20509;-50
2022/08/02 09:56:59;;;;;;;30.13;9.60;;;;;;;26.77;49.38;101605.88;4982652;28;20371;-48
2022/08/02 09:59:26;;;;;;;21.63;9.38;;;;;;;26.77;48.43;101603.13;4979553;28;20027;-50
2022/08/02 10:01:53;;;;;;;22.65;9.13;;;;;;;27.10;48.28;101596.28;4978831;28;20039;-51
2022/08/02 10:04:20;;;;;;;21.40;9.45;;;;;;;27.66;46.74;101597.41;4969904;28;20038;-50
2022/08/02 10:06:46;;;;;;;19.73;8.20;;;;;;;28.07;46.34;101598.19;4974422;28;20058;-50
2022/08/02 10:09:12;;;;;;;24.10;8.70;;;;;;;27.23;46.54;101597.72;4967863;28;20041;-49
2022/08/02 10:11:37;;;;;;;26.35;8.45;;;;;;;26.87;46.89;101608.69;4965238;28;20038;-48
2022/08/02 10:14:05;;;;;;;25.00;9.85;;;;;;;26.47;47.84;101612.13;4967245;28;20049;-49
2022/08/02 10:16:33;;;;;;;22.23;9.55;;;;;;;26.73;47.17;101606.72;4971000;28;20083;-48
2022/08/02 10:19:00;;;;;;;25.30;9.85;;;;;;;26.31;48.88;101616.75;4977368;28;20649;-49
2022/08/02 10:22:20;;;;;;;18.45;7.95;;;;;;;27.44;46.70;101611.56;4988707;28;20030;-48
2022/08/02 10:24:46;;;;;;;17.42;7.90;;;;;;;28.56;43.84;101610.47;4904695;29;20183;-49
2022/08/02 10:27:19;;;;;;;21.15;8.38;;;;;;;28.34;43.42;101613.59;4947287;28;20034;-50
2022/08/02 10:29:46;;;;;;;26.77;8.57;;;;;;;28.54;43.91;101605.25;4972826;28;20019;-50
2022/08/02 10:32:20;;;;;;;20.98;8.05;;;;;;;28.17;44.35;101594.53;4983703;28;20022;-50
2022/08/02 10:35:05;;;;;;;22.77;10.27;;;;;;;27.11;46.47;101591.59;4969481;28;20042;-51
2022/08/02 10:37:33;;;;;;;27.60;9.55;;;;;;;26.85;47.43;101599.00;4984547;28;20167;-50
2022/08/02 10:39:59;;;;;;;24.85;8.20;;;;;;;26.71;48.78;101594.00;4985363;28;20033;-49
2022/08/02 10:42:45;;;;;;;23.83;9.23;;;;;;;26.48;48.82;101587.00;4983493;28;20035;-47
2022/08/02 10:45:14;;;;;;;28.50;8.60;;;;;;;27.04;47.94;101599.31;4984977;28;20421;-48
2022/08/02 10:48:01;;;;;;;19.40;7.10;;;;;;;27.16;46.04;101605.41;4983243;28;20054;-49
2022/08/02 10:50:45;;;;;;;15.63;6.38;;;;;;;27.44;46.72;101594.97;4984288;28;20116;-49
2022/08/02 10:53:30;;;;;;;20.25;8.35;;;;;;;27.00;46.97;101599.03;4984137;28;20050;-47
2022/08/02 10:56:02;;;;;;;20.40;7.22;;;;;;;26.56;46.81;101612.47;4983831;28;20499;-51
2022/08/02 10:58:32;;;;;;;21.52;7.60;;;;;;;26.37;48.17;101593.59;4982613;28;20463;-50
2022/08/02 11:01:22;;;;;;;21.92;7.03;;;;;;;26.70;47.79;101592.34;4980867;28;20109;-49
2022/08/02 11:03:47;;;;;;;21.83;7.95;;;;;;;25.94;48.39;101589.25;4982495;28;20041;-51
2022/08/02 11:06:13;;;;;;;26.50;6.97;;;;;;;25.96;48.42;101576.84;4982062;28;20106;-46
2022/08/02 11:08:39;;;;;;;16.90;6.90;;;;;;;25.78;46.99;101591.06;4985463;28;20034;-49
2022/08/02 11:11:07;;;;;;;22.92;6.80;;;;;;;25.51;48.08;101580.09;4991607;28;20035;-47
2022/08/02 11:14:03;;;;;;;11.50;5.55;;;;;;;25.76;46.54;101576.69;4989157;28;20513;-49
2022/08/02 11:16:56;;;;;;;11.77;5.13;;;;;;;25.97;46.45;101583.19;4986536;28;20031;-48
2022/08/02 11:19:22;;;;;;;19.38;6.88;;;;;;;26.01;47.42;101590.69;4985857;28;20554;-50
2022/08/02 11:22:09;;;;;;;16.15;6.05;;;;;;;26.09;47.43;101581.03;4987751;28;20030;-50